Time;durP1;ratioP1;P1;durP2;ratioP2;P2;SDS_P1;SDS_P2;PMS_P1;PMS_P2;Temp;Humidity;BMP_temperature;BMP_pressure;BME280_temperature;BME280_humidity;BME280_pressure;Samples;Min_cycle;Max_cycle;Signal;HPM_P1;HPM_P2
2022/01/22 00:00:22;;;;;;;128.57;18.58;;;5.50;84.10;;;;;;6186921;23;20260;-60
2022/01/22 00:02:47;;;;;;;157.77;20.30;;;5.50;84.00;;;;;;6215445;23;20010;-60
2022/01/22 00:05:13;;;;;;;144.18;17.73;;;5.50;84.10;;;;;;6240973;23;20008;-61
2022/01/22 00:07:38;;;;;;;144.32;17.80;;;5.50;84.20;;;;;;6189254;23;20007;-60
2022/01/22 00:10:07;;;;;;;154.38;20.40;;;5.50;84.10;;;;;;6239861;23;20369;-60
2022/01/22 00:15:06;;;;;;;212.25;23.45;;;5.40;84.00;;;;;;6189239;23;20012;-60
2022/01/22 00:17:32;;;;;;;218.70;25.80;;;5.40;84.10;;;;;;6214178;23;20014;-61
2022/01/22 00:19:58;;;;;;;184.63;21.88;;;5.40;84.30;;;;;;6213988;23;20397;-59
2022/01/22 00:22:27;;;;;;;176.50;22.10;;;5.40;84.20;;;;;;6239300;23;20074;-61
2022/01/22 00:24:57;;;;;;;151.13;22.50;;;5.40;84.20;;;;;;6237058;22;20032;-62
2022/01/22 00:27:22;;;;;;;146.52;20.65;;;5.40;84.10;;;;;;6212792;23;20008;-61
2022/01/22 00:29:48;;;;;;;148.73;19.15;;;5.30;84.00;;;;;;6214529;23;20005;-62
2022/01/22 00:32:13;;;;;;;118.70;19.92;;;5.40;84.10;;;;;;6240867;23;20004;-61
2022/01/22 00:34:39;;;;;;;125.30;17.05;;;5.30;84.20;;;;;;6240740;23;20028;-62
2022/01/22 00:37:04;;;;;;;132.98;17.92;;;5.30;84.20;;;;;;6239037;23;20432;-63
2022/01/22 00:39:30;;;;;;;135.43;17.85;;;5.20;84.20;;;;;;6212145;23;20430;-61
2022/01/22 00:41:56;;;;;;;105.82;16.50;;;5.20;84.20;;;;;;6240381;23;20027;-61
2022/01/22 00:44:21;;;;;;;108.95;17.00;;;5.20;84.40;;;;;;6213107;23;20414;-61
2022/01/22 00:46:47;;;;;;;129.63;17.73;;;5.20;84.40;;;;;;6188069;23;20075;-61
2022/01/22 00:49:13;;;;;;;89.30;16.17;;;5.20;84.50;;;;;;6187472;23;20447;-62
2022/01/22 00:51:38;;;;;;;94.53;15.23;;;5.20;84.50;;;;;;6236821;22;20348;-61
2022/01/22 00:54:04;;;;;;;92.45;16.80;;;5.20;84.40;;;;;;6211614;23;20015;-61
2022/01/22 00:56:29;;;;;;;89.10;16.25;;;5.10;84.40;;;;;;6214030;23;20015;-62
2022/01/22 00:58:55;;;;;;;87.25;13.77;;;5.20;84.40;;;;;;6240683;23;20161;-61
2022/01/22 01:01:20;;;;;;;95.82;15.15;;;5.10;84.40;;;;;;6239211;23;20441;-60
2022/01/22 01:03:46;;;;;;;83.32;14.77;;;5.10;84.50;;;;;;6186825;23;20035;-59
2022/01/22 01:06:11;;;;;;;89.05;14.90;;;5.10;84.60;;;;;;6212785;23;20008;-60
2022/01/22 01:08:37;;;;;;;98.00;14.43;;;5.10;84.60;;;;;;6213520;23;20426;-63
2022/01/22 01:11:03;;;;;;;79.63;14.27;;;5.10;84.60;;;;;;6213761;23;20008;-62
2022/01/22 01:13:32;;;;;;;83.13;14.40;;;5.00;84.60;;;;;;6188157;23;20007;-60
2022/01/22 01:34:41;;;;;;;69.65;12.65;;;4.90;84.60;;;;;;6217967;23;20008;-61
2022/01/22 01:37:07;;;;;;;71.35;13.15;;;4.90;84.70;;;;;;6240703;23;20079;-60
2022/01/22 01:39:35;;;;;;;72.88;13.52;;;4.90;84.80;;;;;;6213170;23;20066;-61
2022/01/22 01:42:13;;;;;;;58.88;11.32;;;4.90;84.80;;;;;;6211900;23;20000;-61
2022/01/22 01:44:40;;;;;;;52.10;12.43;;;4.90;84.80;;;;;;6237372;22;20008;-61
2022/01/22 01:47:07;;;;;;;60.78;11.93;;;4.80;84.80;;;;;;6187374;23;20008;-62
2022/01/22 01:49:33;;;;;;;58.78;11.13;;;4.80;84.70;;;;;;6213838;23;20271;-60
2022/01/22 01:52:01;;;;;;;64.25;12.65;;;4.80;84.80;;;;;;6212575;23;20011;-60
2022/01/22 01:59:56;;;;;;;48.03;10.65;;;4.80;84.80;;;;;;6210014;23;20076;-62
2022/01/22 02:02:23;;;;;;;64.40;11.57;;;4.80;84.80;;;;;;6208378;23;20000;-61
2022/01/22 02:04:49;;;;;;;41.72;9.75;;;4.80;85.00;;;;;;6157927;23;20005;-61
2022/01/22 02:07:14;;;;;;;54.63;11.98;;;4.70;85.00;;;;;;6181886;23;20774;-62
2022/01/22 02:09:41;;;;;;;59.10;12.02;;;4.70;85.00;;;;;;6207707;23;20007;-61
2022/01/22 02:12:44;;;;;;;52.10;10.70;;;4.70;85.00;;;;;;6208745;23;20264;-60
2022/01/22 02:23:36;;;;;;;45.33;11.13;;;4.70;85.00;;;;;;6163586;23;20030;-61
2022/01/22 02:26:06;;;;;;;50.55;9.65;;;4.70;85.10;;;;;;6185349;23;20012;-62
2022/01/22 02:28:32;;;;;;;46.78;9.45;;;4.70;85.10;;;;;;6158466;23;20058;-62
2022/01/22 02:31:47;;;;;;;55.30;10.15;;;4.60;85.10;;;;;;6183553;23;20067;-62
2022/01/22 02:34:37;;;;;;;56.80;9.88;;;4.60;85.20;;;;;;6174232;23;20062;-62
2022/01/22 02:36:41;;;;;;;44.53;10.95;;;4.60;85.20;;;;;;6153098;23;20004;-60
2022/01/22 02:41:38;;;;;;;41.85;10.25;;;4.60;85.10;;;;;;6183775;23;20005;-61
2022/01/22 02:44:03;;;;;;;43.83;8.55;;;4.60;85.10;;;;;;6208905;23;20036;-60
2022/01/22 02:46:32;;;;;;;57.63;10.60;;;4.60;85.80;;;;;;6208404;23;20001;-59
2022/01/22 02:48:57;;;;;;;43.45;9.63;;;4.60;85.20;;;;;;6181280;23;20012;-60
2022/01/22 02:51:23;;;;;;;45.00;8.73;;;4.50;85.30;;;;;;6131452;23;20004;-59
2022/01/22 02:53:50;;;;;;;38.60;9.88;;;4.50;85.30;;;;;;6182932;23;20064;-62
2022/01/22 02:56:16;;;;;;;40.45;9.45;;;4.50;85.30;;;;;;6190614;22;20019;-61
2022/01/22 02:58:42;;;;;;;34.55;9.63;;;4.50;85.40;;;;;;6267546;22;20050;-60
2022/01/22 03:01:07;;;;;;;39.17;8.93;;;4.50;85.40;;;;;;6265722;22;20007;-62
2022/01/22 03:03:33;;;;;;;28.85;9.65;;;4.50;85.50;;;;;;6241697;22;20574;-61
2022/01/22 03:06:01;;;;;;;51.22;9.90;;;4.50;85.50;;;;;;6270304;22;20011;-60
2022/01/22 03:08:28;;;;;;;27.77;8.68;;;4.50;85.50;;;;;;6269480;22;20000;-60
2022/01/22 03:10:54;;;;;;;50.60;10.43;;;4.40;85.50;;;;;;6268992;22;20003;-62
2022/01/22 03:14:10;;;;;;;37.05;7.50;;;4.40;85.40;;;;;;6267602;22;20429;-60
2022/01/22 03:16:28;;;;;;;34.65;9.15;;;4.40;85.40;;;;;;6268559;22;20073;-61
2022/01/22 03:29:30;;;;;;;36.17;8.52;;;4.40;85.70;;;;;;6270304;22;20078;-61
2022/01/22 03:31:55;;;;;;;38.72;8.88;;;4.40;85.70;;;;;;6270766;22;20380;-61
2022/01/22 03:34:21;;;;;;;30.27;8.55;;;4.40;85.70;;;;;;6270692;22;20043;-60
2022/01/22 03:36:46;;;;;;;30.75;8.27;;;4.40;85.70;;;;;;6270308;22;20034;-61
2022/01/22 03:39:12;;;;;;;39.67;8.10;;;4.40;85.70;;;;;;6268934;22;20090;-60
2022/01/22 03:41:37;;;;;;;30.17;8.05;;;4.40;85.70;;;;;;6242895;22;20008;-61
2022/01/22 03:44:05;;;;;;;35.58;8.27;;;4.40;85.60;;;;;;6271319;22;20055;-61
2022/01/22 03:46:30;;;;;;;37.97;8.77;;;4.40;85.60;;;;;;6245225;22;20185;-61
2022/01/22 03:48:56;;;;;;;26.55;8.25;;;4.40;85.60;;;;;;6270212;22;20007;-61
2022/01/22 03:51:21;;;;;;;30.80;7.35;;;4.40;85.70;;;;;;6269324;22;20205;-61
2022/01/22 03:53:47;;;;;;;27.73;9.20;;;4.40;85.70;;;;;;6242653;22;20058;-60
2022/01/22 03:56:13;;;;;;;33.53;8.27;;;4.30;85.70;;;;;;6271079;22;20039;-59
2022/01/22 03:58:43;;;;;;;28.85;8.32;;;4.30;85.70;;;;;;6244463;22;19996;-62
2022/01/22 04:03:39;;;;;;;29.05;8.32;;;4.30;85.70;;;;;;6271332;22;20498;-61
2022/01/22 04:06:37;;;;;;;22.58;7.35;;;4.30;85.60;;;;;;6243897;22;20125;-62
2022/01/22 04:08:58;;;;;;;26.52;7.18;;;4.40;85.80;;;;;;6248784;22;20068;-62
2022/01/22 04:11:24;;;;;;;24.90;7.50;;;4.40;85.70;;;;;;6220532;22;20455;-59
2022/01/22 04:13:52;;;;;;;42.42;8.20;;;4.40;85.80;;;;;;6244670;22;20110;-62
2022/01/22 04:16:18;;;;;;;28.65;7.15;;;4.40;85.70;;;;;;6219597;22;20003;-61
2022/01/22 04:27:08;;;;;;;27.85;7.00;;;4.40;85.60;;;;;;6271914;22;20189;-62
2022/01/22 04:29:33;;;;;;;28.08;7.28;;;4.40;85.70;;;;;;6247271;22;20010;-60
2022/01/22 04:31:59;;;;;;;31.58;7.65;;;4.40;85.70;;;;;;6242627;22;20003;-59
2022/01/22 04:34:24;;;;;;;27.27;6.55;;;4.40;85.60;;;;;;6216735;22;20248;-60
2022/01/22 04:36:50;;;;;;;27.65;7.70;;;4.40;85.70;;;;;;6244183;22;20223;-61
2022/01/22 04:39:18;;;;;;;23.85;6.88;;;4.40;85.60;;;;;;6244668;22;20090;-61
2022/01/22 04:41:43;;;;;;;19.65;6.47;;;4.40;85.60;;;;;;6245170;22;20004;-61
2022/01/22 04:44:09;;;;;;;21.48;6.95;;;4.40;85.70;;;;;;6270170;22;20008;-62
2022/01/22 04:49:14;;;;;;;19.52;7.47;;;4.40;85.60;;;;;;6221537;22;20078;-61
2022/01/22 04:57:08;;;;;;;23.80;6.93;;;4.40;85.70;;;;;;6262084;22;20085;-59
2022/01/22 04:59:33;;;;;;;28.80;6.82;;;4.40;85.80;;;;;;6267704;22;20011;-60
2022/01/22 05:01:59;;;;;;;29.73;6.80;;;4.40;85.70;;;;;;6218527;22;20014;-60
2022/01/22 05:04:24;;;;;;;23.88;7.25;;;4.40;85.50;;;;;;6269611;22;20012;-62
2022/01/22 05:06:50;;;;;;;26.08;6.57;;;4.50;85.60;;;;;;6272028;22;20429;-62
2022/01/22 05:09:15;;;;;;;23.42;7.05;;;4.40;85.70;;;;;;6243369;22;20117;-61
2022/01/22 05:11:41;;;;;;;21.13;6.38;;;4.50;85.80;;;;;;6267692;22;20483;-61
2022/01/22 05:14:06;;;;;;;20.00;6.65;;;4.40;85.60;;;;;;6268748;22;20011;-61
2022/01/22 05:16:32;;;;;;;20.88;5.97;;;4.40;85.60;;;;;;6271817;22;20012;-60
2022/01/22 05:19:03;;;;;;;27.15;6.32;;;4.40;85.50;;;;;;6269626;22;20000;-59
2022/01/22 05:21:31;;;;;;;26.38;7.13;;;4.40;85.50;;;;;;6269932;22;20095;-61
2022/01/22 05:24:00;;;;;;;26.38;7.25;;;4.40;85.50;;;;;;6269480;22;20065;-60
2022/01/22 05:39:24;;;;;;;27.25;6.22;;;4.40;85.60;;;;;;6244026;22;20244;-61
2022/01/22 05:41:50;;;;;;;27.73;6.53;;;4.40;85.60;;;;;;6269518;22;20014;-60
2022/01/22 05:44:15;;;;;;;28.08;6.78;;;4.40;86.30;;;;;;6270466;22;20004;-60
2022/01/22 05:46:41;;;;;;;17.17;6.38;;;4.40;85.70;;;;;;6269300;22;20329;-59
2022/01/22 05:49:06;;;;;;;21.80;5.68;;;4.50;85.80;;;;;;6241817;22;20432;-62
2022/01/22 05:51:33;;;;;;;17.02;5.55;;;4.40;85.70;;;;;;6268696;22;20007;-61
2022/01/22 05:59:36;;;;;;;28.38;5.85;;;4.40;85.80;;;;;;6270759;22;20112;-62
2022/01/22 06:02:06;;;;;;;;;;;4.40;86.10;;;;;;6268622;22;20010;-60
2022/01/22 06:04:31;;;;;;;23.42;5.50;;;4.40;86.00;;;;;;6267216;22;19956;-61
2022/01/22 06:06:57;;;;;;;20.52;5.55;;;4.40;86.10;;;;;;6268476;22;20007;-61
2022/01/22 06:09:24;;;;;;;16.92;6.03;;;4.40;86.20;;;;;;6268843;22;20061;-60
2022/01/22 06:11:56;;;;;;;31.48;5.82;;;4.40;86.20;;;;;;6269637;22;20003;-61
2022/01/22 06:14:22;;;;;;;15.95;5.68;;;4.40;86.30;;;;;;6268719;22;20397;-60
2022/01/22 06:16:48;;;;;;;23.00;6.15;;;4.40;86.30;;;;;;6266777;22;19996;-61
2022/01/22 06:19:13;;;;;;;23.38;5.45;;;4.40;86.30;;;;;;6268367;22;20015;-62
2022/01/22 06:21:39;;;;;;;18.48;6.07;;;4.40;86.30;;;;;;6269389;22;20007;-61
2022/01/22 06:24:05;;;;;;;14.25;5.03;;;4.50;86.40;;;;;;6268526;22;20003;-60
2022/01/22 06:26:30;;;;;;;19.00;5.32;;;4.50;86.40;;;;;;6269374;22;20010;-61
2022/01/22 06:28:56;;;;;;;17.83;5.05;;;4.40;86.20;;;;;;6268447;22;20000;-61
2022/01/22 06:31:21;;;;;;;21.00;5.40;;;4.40;86.30;;;;;;6241031;22;20004;-59
2022/01/22 06:33:47;;;;;;;24.50;5.65;;;4.40;86.20;;;;;;6268158;22;20003;-60
2022/01/22 06:36:12;;;;;;;14.98;4.95;;;4.40;86.10;;;;;;6269067;22;20371;-62
2022/01/22 06:38:38;;;;;;;16.92;4.38;;;4.40;86.20;;;;;;6267296;22;20011;-60
2022/01/22 06:43:47;;;;;;;21.30;5.38;;;4.40;86.30;;;;;;6266432;22;20061;-61
2022/01/22 06:46:13;;;;;;;20.92;5.88;;;4.40;86.20;;;;;;6242268;22;20007;-62
2022/01/22 06:48:38;;;;;;;14.10;5.68;;;4.40;86.20;;;;;;6269549;22;20098;-61
2022/01/22 06:51:04;;;;;;;23.25;5.63;;;4.40;86.10;;;;;;6218005;22;20090;-59
2022/01/22 06:53:29;;;;;;;12.52;4.25;;;4.40;86.10;;;;;;6268222;22;20412;-62
2022/01/22 06:55:59;;;;;;;16.90;5.20;;;4.40;86.10;;;;;;6266068;22;20411;-59
2022/01/22 06:58:24;;;;;;;11.90;4.57;;;4.40;86.00;;;;;;6242382;22;20011;-60
2022/01/22 07:00:50;;;;;;;18.50;4.95;;;4.40;86.00;;;;;;6243757;22;20007;-59
2022/01/22 07:03:15;;;;;;;14.60;5.07;;;4.40;86.00;;;;;;6268774;22;20333;-60
2022/01/22 07:05:41;;;;;;;12.38;5.38;;;4.40;86.10;;;;;;6268333;22;20082;-60
2022/01/22 07:08:06;;;;;;;16.38;4.80;;;4.40;86.10;;;;;;6268270;22;20421;-59
2022/01/22 07:10:32;;;;;;;16.13;4.20;;;4.40;86.10;;;;;;6267867;22;20000;-60
2022/01/22 07:12:58;;;;;;;13.40;4.45;;;4.40;86.10;;;;;;6267714;22;19996;-62
2022/01/22 07:15:23;;;;;;;15.27;5.15;;;4.30;86.10;;;;;;6268561;22;20008;-61
2022/01/22 07:17:49;;;;;;;12.20;3.65;;;4.30;86.00;;;;;;6268718;22;20083;-62
2022/01/22 07:20:18;;;;;;;20.13;4.88;;;4.40;86.00;;;;;;6267471;22;20429;-60
2022/01/22 07:25:23;;;;;;;15.18;4.63;;;4.40;86.00;;;;;;6246005;22;20022;-60
2022/01/22 07:27:50;;;;;;;14.10;4.65;;;4.30;85.80;;;;;;6268792;22;20080;-62
2022/01/22 07:30:15;;;;;;;8.38;4.05;;;4.40;85.90;;;;;;6269716;22;20149;-61
2022/01/22 07:32:44;;;;;;;10.20;4.53;;;4.40;86.00;;;;;;6269803;22;20420;-61
2022/01/22 07:35:11;;;;;;;12.35;3.90;;;4.30;85.90;;;;;;6266238;22;20494;-62
2022/01/22 07:37:37;;;;;;;14.43;4.28;;;4.40;85.90;;;;;;6267346;22;20008;-60
2022/01/22 07:40:05;;;;;;;13.38;4.22;;;4.40;85.90;;;;;;6269622;22;20015;-60
2022/01/22 07:42:30;;;;;;;10.20;3.95;;;4.30;85.90;;;;;;6268970;22;20000;-61
2022/01/22 07:44:56;;;;;;;15.40;4.53;;;4.30;85.90;;;;;;6268288;22;20034;-60
2022/01/22 07:47:21;;;;;;;12.30;4.57;;;4.30;85.80;;;;;;6266012;22;20436;-61
2022/01/22 07:49:47;;;;;;;12.90;4.20;;;4.40;85.80;;;;;;6265013;22;20042;-62
2022/01/22 07:52:12;;;;;;;10.75;4.38;;;4.30;85.90;;;;;;6270479;22;20042;-61
2022/01/22 07:54:38;;;;;;;9.85;4.25;;;4.30;85.90;;;;;;6268352;22;20138;-61
2022/01/22 07:57:03;;;;;;;11.30;4.20;;;4.30;85.90;;;;;;6270608;22;20023;-60
2022/01/22 07:59:30;;;;;;;11.63;3.78;;;4.30;85.80;;;;;;6216345;22;20008;-61
2022/01/22 08:01:56;;;;;;;11.27;3.80;;;4.30;85.80;;;;;;6241916;22;20008;-61
2022/01/22 08:04:24;;;;;;;11.20;4.00;;;4.30;85.90;;;;;;6243454;22;20427;-60
2022/01/22 08:06:51;;;;;;;11.70;3.83;;;4.30;85.90;;;;;;6245071;22;20106;-60
2022/01/22 08:09:17;;;;;;;12.68;3.50;;;4.30;86.00;;;;;;6271922;22;20311;-62
2022/01/22 08:11:42;;;;;;;9.48;3.90;;;4.30;86.00;;;;;;6244691;22;19999;-60
2022/01/22 08:14:09;;;;;;;9.68;3.55;;;4.50;85.80;;;;;;6269750;22;20003;-59
2022/01/22 08:16:35;;;;;;;10.32;3.72;;;4.30;85.70;;;;;;6269643;22;20429;-61
2022/01/22 08:19:00;;;;;;;9.13;4.18;;;4.30;85.50;;;;;;6218696;22;20011;-61
2022/01/22 08:21:26;;;;;;;8.00;3.10;;;4.30;85.60;;;;;;6244698;22;20007;-60
2022/01/22 08:23:51;;;;;;;10.10;3.55;;;4.30;85.50;;;;;;6218984;22;20190;-61
2022/01/22 08:26:21;;;;;;;9.70;3.00;;;4.30;85.60;;;;;;6269979;22;20004;-60
2022/01/22 08:28:53;;;;;;;9.05;3.47;;;4.30;85.60;;;;;;6242139;22;20008;-62
2022/01/22 08:31:25;;;;;;;11.88;3.67;;;4.30;85.50;;;;;;6271785;22;20078;-59
2022/01/22 08:36:35;;;;;;;9.48;3.53;;;4.30;85.40;;;;;;6225614;22;20014;-60
2022/01/22 08:39:00;;;;;;;12.98;3.47;;;4.30;85.40;;;;;;6268181;22;20000;-59
2022/01/22 08:41:26;;;;;;;5.90;2.78;;;4.30;85.40;;;;;;6242975;22;20007;-60
2022/01/22 08:43:53;;;;;;;8.07;3.53;;;4.30;85.30;;;;;;6243278;22;20338;-60
2022/01/22 08:46:19;;;;;;;5.55;3.13;;;4.20;85.10;;;;;;6244354;22;20034;-61
2022/01/22 08:48:45;;;;;;;7.07;2.75;;;4.30;85.10;;;;;;6243811;22;20015;-60
2022/01/22 08:51:12;;;;;;;6.53;2.88;;;4.30;85.20;;;;;;6243147;22;20264;-61
2022/01/22 08:53:38;;;;;;;6.65;2.70;;;4.20;85.00;;;;;;6268903;22;20479;-61
2022/01/22 08:56:05;;;;;;;6.50;2.58;;;4.30;85.00;;;;;;6196166;22;20011;-59
2022/01/22 08:58:31;;;;;;;6.63;2.83;;;4.30;85.00;;;;;;6270989;22;20042;-61
2022/01/22 09:00:56;;;;;;;5.25;2.63;;;4.30;84.80;;;;;;6269341;22;20007;-60
2022/01/22 09:03:23;;;;;;;5.53;2.35;;;4.50;84.90;;;;;;6243883;22;19999;-60
2022/01/22 09:05:48;;;;;;;6.28;2.80;;;4.30;84.70;;;;;;6267222;22;20007;-60
2022/01/22 09:08:15;;;;;;;7.45;3.22;;;4.30;84.70;;;;;;6267369;22;20073;-62
2022/01/22 09:10:41;;;;;;;8.23;2.80;;;4.30;84.70;;;;;;6269457;22;20058;-60
2022/01/22 09:13:07;;;;;;;9.65;2.90;;;4.30;84.50;;;;;;6269166;22;20128;-61
2022/01/22 09:15:33;;;;;;;30.83;4.45;;;4.40;84.60;;;;;;6270284;22;20016;-60
2022/01/22 09:17:58;;;;;;;14.23;2.90;;;4.40;84.50;;;;;;6270323;22;20042;-61
2022/01/22 09:23:09;;;;;;;9.88;2.85;;;4.50;84.60;;;;;;6267529;22;20452;-60
2022/01/22 09:25:35;;;;;;;9.57;3.40;;;4.50;85.00;;;;;;6269102;22;20094;-61
2022/01/22 09:28:00;;;;;;;19.33;4.13;;;4.50;84.10;;;;;;6243951;22;20039;-60
2022/01/22 09:30:26;;;;;;;12.65;3.30;;;4.50;84.10;;;;;;6268364;22;20052;-61
2022/01/22 09:32:52;;;;;;;17.08;3.83;;;4.60;84.10;;;;;;6241210;22;20004;-60
2022/01/22 09:35:17;;;;;;;16.58;3.80;;;4.50;84.10;;;;;;6266513;22;20109;-61
2022/01/22 09:37:43;;;;;;;30.90;5.22;;;4.60;84.00;;;;;;6270742;22;20051;-60
2022/01/22 09:40:09;;;;;;;85.25;13.77;;;4.60;84.30;;;;;;6270233;22;20046;-59
2022/01/22 09:42:34;;;;;;;28.55;5.80;;;4.70;84.80;;;;;;6268824;22;20158;-60
2022/01/22 09:45:01;;;;;;;43.10;6.15;;;4.70;84.70;;;;;;6266771;22;20244;-62
2022/01/22 09:47:26;;;;;;;48.80;8.07;;;4.70;84.70;;;;;;6239806;22;20474;-62
2022/01/22 09:49:52;;;;;;;55.25;7.95;;;4.70;84.70;;;;;;6217802;22;20004;-60
2022/01/22 09:52:17;;;;;;;67.50;8.77;;;4.80;84.80;;;;;;6268579;22;20004;-61
2022/01/22 09:54:43;;;;;;;53.42;8.73;;;4.80;85.50;;;;;;6242901;22;20003;-60
2022/01/22 09:57:09;;;;;;;63.80;8.60;;;4.80;84.70;;;;;;6266730;22;20376;-60
2022/01/22 09:59:35;;;;;;;65.35;9.77;;;4.90;84.80;;;;;;6267880;22;20099;-60
2022/01/22 10:02:18;;;;;;;68.78;8.77;;;4.90;84.60;;;;;;6268142;22;20150;-60
2022/01/22 10:04:48;;;;;;;97.90;10.55;;;4.90;84.80;;;;;;6269490;22;20035;-60
2022/01/22 10:07:18;;;;;;;104.22;12.13;;;4.90;84.70;;;;;;6271312;22;20084;-59
2022/01/22 10:10:00;;;;;;;87.32;10.38;;;5.00;84.70;;;;;;6244203;22;19996;-61
2022/01/22 10:12:27;;;;;;;70.00;11.57;;;5.00;84.80;;;;;;6267706;22;20094;-60
2022/01/22 10:15:08;;;;;;;81.25;10.90;;;5.10;84.70;;;;;;6265167;22;20016;-62
2022/01/22 10:17:49;;;;;;;138.75;15.85;;;5.10;84.70;;;;;;6267565;22;20074;-62
2022/01/22 10:20:21;;;;;;;85.65;12.05;;;5.10;84.80;;;;;;6268224;22;20014;-63
2022/01/22 10:22:50;;;;;;;110.80;14.50;;;5.20;84.70;;;;;;6270086;22;20069;-62
2022/01/22 10:25:41;;;;;;;107.13;14.18;;;5.20;84.60;;;;;;6265831;22;20049;-59
2022/01/22 10:28:13;;;;;;;112.60;13.50;;;5.20;84.60;;;;;;6266154;22;20017;-61
2022/01/22 10:30:41;;;;;;;109.03;15.07;;;5.20;84.50;;;;;;6269970;22;20041;-64
2022/01/22 10:33:29;;;;;;;110.57;14.82;;;5.30;84.50;;;;;;6219242;22;20077;-63
2022/01/22 10:36:19;;;;;;;109.50;15.05;;;5.30;84.40;;;;;;6243646;22;20003;-60
2022/01/22 10:38:50;;;;;;;121.57;14.75;;;5.30;84.40;;;;;;6266020;22;20476;-62
2022/01/22 10:41:18;;;;;;;133.63;16.67;;;5.40;84.60;;;;;;6241203;22;20000;-64
2022/01/22 10:43:54;;;;;;;189.77;18.58;;;5.40;84.50;;;;;;6268942;22;20000;-62
2022/01/22 10:49:07;;;;;;;115.97;15.82;;;5.40;84.60;;;;;;6268310;22;20003;-63
2022/01/22 10:51:50;;;;;;;134.02;17.25;;;5.40;84.60;;;;;;6217813;22;20046;-61
2022/01/22 10:54:17;;;;;;;120.20;15.25;;;5.40;84.50;;;;;;6241068;22;20046;-61
2022/01/22 10:56:43;;;;;;;139.00;18.33;;;5.40;84.50;;;;;;6243146;22;20027;-62
2022/01/22 10:59:10;;;;;;;111.90;15.02;;;5.50;84.40;;;;;;6243120;22;20103;-63
2022/01/22 11:01:51;;;;;;;118.40;14.82;;;5.50;84.30;;;;;;6269840;22;20004;-63
2022/01/22 11:04:37;;;;;;;111.43;15.73;;;5.50;84.10;;;;;;6266135;22;20008;-63
2022/01/22 11:07:05;;;;;;;120.03;13.55;;;5.60;84.00;;;;;;6266255;22;20004;-63
2022/01/22 11:09:30;;;;;;;123.00;16.63;;;5.50;83.70;;;;;;6268061;22;20054;-62
2022/01/22 11:11:57;;;;;;;119.30;14.43;;;5.60;83.70;;;;;;6267763;22;19999;-62
2022/01/22 11:14:23;;;;;;;126.28;18.15;;;5.60;83.70;;;;;;6267950;22;20113;-63
2022/01/22 11:16:49;;;;;;;121.85;16.00;;;5.60;83.80;;;;;;6265945;22;20000;-63
2022/01/22 11:19:19;;;;;;;111.00;16.90;;;5.50;83.50;;;;;;6266820;22;20114;-60
2022/01/22 11:21:48;;;;;;;137.55;18.10;;;5.70;83.60;;;;;;6241653;22;20000;-60
2022/01/22 11:24:16;;;;;;;113.70;16.40;;;5.70;83.50;;;;;;6268802;22;20401;-60
2022/01/22 11:26:45;;;;;;;92.38;13.98;;;5.70;83.50;;;;;;6243624;22;19996;-59
2022/01/22 11:29:11;;;;;;;103.57;14.85;;;5.80;83.30;;;;;;6267432;22;20023;-61
2022/01/22 11:31:37;;;;;;;115.50;15.07;;;5.80;83.00;;;;;;6238891;22;20329;-60
2022/01/22 11:34:03;;;;;;;115.07;14.43;;;5.80;83.30;;;;;;6241839;22;20003;-62
2022/01/22 11:36:31;;;;;;;125.85;15.70;;;5.80;83.20;;;;;;6241919;22;20301;-62
2022/01/22 11:38:58;;;;;;;109.20;15.23;;;5.80;83.10;;;;;;6264716;22;20032;-61
2022/01/22 11:41:24;;;;;;;118.00;14.80;;;5.80;83.10;;;;;;6267615;22;20000;-61
2022/01/22 11:46:36;;;;;;;129.00;15.90;;;5.90;83.20;;;;;;6268509;22;20398;-60
2022/01/22 11:49:16;;;;;;;106.97;13.75;;;5.90;83.20;;;;;;6269040;22;20020;-61
2022/01/22 11:51:43;;;;;;;87.53;13.70;;;6.00;83.30;;;;;;6244412;22;20425;-61
2022/01/22 11:54:09;;;;;;;104.72;14.15;;;6.00;83.00;;;;;;6270057;22;20078;-61
2022/01/22 11:56:41;;;;;;;92.93;13.88;;;6.00;83.50;;;;;;6265953;22;20043;-60
2022/01/22 11:59:23;;;;;;;89.45;13.00;;;6.00;83.80;;;;;;6266130;22;20368;-61
2022/01/22 12:02:15;;;;;;;84.13;12.52;;;6.00;83.50;;;;;;6266642;22;20077;-62
2022/01/22 12:04:41;;;;;;;95.38;13.27;;;6.10;83.20;;;;;;6263194;22;20011;-60
2022/01/22 12:07:07;;;;;;;92.60;12.93;;;6.10;83.00;;;;;;6269826;22;20374;-60
2022/01/22 12:15:26;;;;;;;90.38;12.05;;;6.20;83.50;;;;;;6267076;22;20044;-60
2022/01/22 12:18:06;;;;;;;94.90;13.18;;;6.20;83.10;;;;;;6243701;22;20018;-60
2022/01/22 12:23:11;;;;;;;91.50;11.77;;;6.20;83.00;;;;;;6267896;22;20019;-62
2022/01/22 12:25:39;;;;;;;91.13;12.73;;;6.20;83.00;;;;;;6241577;22;20109;-62
2022/01/22 12:28:11;;;;;;;88.47;12.57;;;6.30;83.10;;;;;;6268381;22;20000;-60
2022/01/22 12:30:39;;;;;;;96.15;11.93;;;6.30;83.20;;;;;;6266767;22;20015;-62
2022/01/22 12:33:07;;;;;;;88.70;13.10;;;6.30;83.20;;;;;;6263607;22;20340;-62
2022/01/22 12:35:35;;;;;;;124.15;16.17;;;6.30;83.20;;;;;;6262935;22;20012;-60
2022/01/22 12:38:20;;;;;;;106.82;14.20;;;6.30;83.40;;;;;;6240513;22;20016;-62
2022/01/22 12:40:47;;;;;;;106.90;13.10;;;6.30;83.30;;;;;;6243696;22;20331;-60
2022/01/22 12:43:19;;;;;;;98.15;12.95;;;6.40;83.50;;;;;;6268273;22;20288;-59
2022/01/22 12:45:45;;;;;;;78.53;12.75;;;6.40;83.40;;;;;;6268280;22;20402;-62
2022/01/22 12:48:12;;;;;;;96.20;13.30;;;6.40;83.40;;;;;;6217428;22;19999;-60
2022/01/22 12:50:38;;;;;;;103.28;14.02;;;6.40;83.50;;;;;;6266162;22;20004;-61
2022/01/22 12:53:11;;;;;;;114.00;14.88;;;6.40;83.30;;;;;;6270746;22;20076;-60
2022/01/22 12:56:00;;;;;;;100.88;13.45;;;6.50;83.50;;;;;;6269411;22;20012;-59
2022/01/22 12:58:31;;;;;;;88.53;13.00;;;6.50;83.40;;;;;;6249497;22;20447;-61
2022/01/22 13:01:12;;;;;;;96.65;14.15;;;6.50;83.50;;;;;;6243001;22;20023;-60
2022/01/22 13:03:42;;;;;;;87.25;13.00;;;6.50;84.00;;;;;;6189573;22;20007;-60
2022/01/22 13:06:08;;;;;;;92.55;14.45;;;6.50;83.60;;;;;;6217413;22;20398;-61
2022/01/22 13:08:34;;;;;;;126.45;13.45;;;6.50;83.50;;;;;;6244429;22;20011;-62
2022/01/22 13:11:01;;;;;;;82.20;11.63;;;6.50;83.70;;;;;;6218862;22;20031;-61
2022/01/22 13:13:27;;;;;;;86.38;12.45;;;6.60;83.60;;;;;;6270386;22;20025;-61
2022/01/22 13:16:08;;;;;;;96.28;12.60;;;6.60;83.60;;;;;;6217014;22;20019;-62
2022/01/22 13:18:41;;;;;;;197.65;22.63;;;6.60;83.50;;;;;;6216647;22;20008;-60
2022/01/22 13:21:07;;;;;;;120.57;16.83;;;6.60;83.40;;;;;;6217708;22;20003;-63
2022/01/22 13:23:33;;;;;;;113.15;16.52;;;6.60;83.30;;;;;;6270198;22;20075;-60
2022/01/22 13:25:59;;;;;;;105.90;13.07;;;6.70;83.40;;;;;;6217432;22;20031;-62
2022/01/22 13:28:28;;;;;;;104.22;12.65;;;6.60;83.30;;;;;;6217318;22;20003;-59
2022/01/22 13:30:59;;;;;;;120.35;12.95;;;6.70;83.30;;;;;;6217318;22;20079;-60
2022/01/22 13:36:07;;;;;;;99.95;11.80;;;6.70;83.00;;;;;;6271620;22;20008;-61
2022/01/22 13:48:58;;;;;;;106.55;14.43;;;6.80;82.90;;;;;;6267827;22;20014;-62
2022/01/22 13:51:27;;;;;;;86.57;12.15;;;6.80;82.80;;;;;;6216159;22;20074;-64
2022/01/22 13:53:55;;;;;;;82.22;11.60;;;6.90;82.70;;;;;;6215567;22;20007;-62
2022/01/22 13:56:43;;;;;;;94.65;11.95;;;6.90;82.50;;;;;;6268087;22;20023;-59
2022/01/22 13:59:19;;;;;;;96.45;13.27;;;6.90;82.50;;;;;;6235590;22;20189;-66
2022/01/22 14:02:04;;;;;;;117.57;12.85;;;6.90;82.60;;;;;;6259331;22;20008;-62
2022/01/22 14:04:49;;;;;;;91.17;12.50;;;7.00;82.60;;;;;;6257273;22;20107;-63
2022/01/22 14:07:31;;;;;;;117.65;13.27;;;7.00;82.50;;;;;;6205286;22;20433;-61
2022/01/22 14:10:13;;;;;;;101.55;12.70;;;7.00;82.20;;;;;;6265705;22;20084;-62
2022/01/22 14:12:45;;;;;;;103.75;12.38;;;7.00;82.30;;;;;;6268619;22;20482;-59
2022/01/22 14:15:26;;;;;;;96.43;13.25;;;7.10;82.20;;;;;;6240837;22;20312;-61
2022/01/22 14:17:53;;;;;;;96.68;11.95;;;7.10;82.40;;;;;;6267425;22;20054;-60
2022/01/22 14:20:23;;;;;;;107.10;11.82;;;7.10;82.20;;;;;;6267470;22;20011;-60
2022/01/22 14:22:57;;;;;;;88.47;12.57;;;7.10;82.10;;;;;;6240970;22;20018;-60
2022/01/22 14:25:23;;;;;;;98.00;12.25;;;7.20;82.20;;;;;;6269540;22;20087;-61
2022/01/22 14:28:02;;;;;;;104.38;12.13;;;7.20;82.20;;;;;;6239388;22;20024;-60
2022/01/22 14:30:37;;;;;;;96.20;12.65;;;7.20;82.10;;;;;;6214798;22;20406;-61
2022/01/22 14:33:02;;;;;;;111.72;13.85;;;7.20;81.90;;;;;;6240425;22;20010;-59
2022/01/22 14:35:28;;;;;;;93.43;12.18;;;7.30;81.90;;;;;;6215765;22;20027;-61
2022/01/22 14:37:56;;;;;;;100.88;12.75;;;7.30;82.10;;;;;;6216539;22;19996;-59
2022/01/22 14:45:57;;;;;;;96.15;14.43;;;7.30;81.90;;;;;;6244574;22;20091;-63
2022/01/22 14:48:23;;;;;;;116.68;14.00;;;7.30;82.30;;;;;;6216377;22;20088;-59
2022/01/22 14:50:48;;;;;;;107.78;13.63;;;7.30;82.20;;;;;;6240769;22;20145;-62
2022/01/22 14:53:14;;;;;;;105.63;13.93;;;7.30;82.20;;;;;;6241728;22;20031;-60
2022/01/22 14:55:50;;;;;;;104.00;14.50;;;7.30;82.30;;;;;;6240537;22;20062;-60